Latest Coastal Weather Observations for Mandurah

IDW60701

Issued at 9:32 am WST Tuesday 4 August 2015 (issued every 10 minutes, with the page automatically refreshed every 10 minutes)

About coastal observations | Map of coastal stations | Coastal observations for WA | Marine services | Other Formats
Station Details ID: 009977 Name: MANDURAH Lat: -32.52 Lon: 115.71 Height: 3.0 m
Data from the previous 72 hours. | See also: Recent months at Mandurah
Date/Time
WST
Temp

°C
Wind Pressure Rain
since 9am
mm
Weather Cloud Vis
km
Sea
Height
m
Swell
Dir
 
Speed
knots
Gust
knots
hPa Trend Height
m
Period
s
Dir
04/09:30am 12.1 ESE 6 9 1034.3 - 0.0 - - - - - - -
04/09:00am 10.7 ESE 6 10 1034.3 - 0.0 - - - - - - -
04/08:30am 9.2 ESE 4 6 1034.1 - 0.0 - - - - - - -
04/08:00am 9.0 ESE 5 6 1033.8 - 0.0 - - - - - - -
04/07:30am 9.4 SE 4 6 1033.8 - 0.0 - - - - - - -
04/07:00am 9.4 SSE 4 5 1033.6 - 0.0 - - - - - - -
04/06:30am 9.9 SSE 4 6 1033.4 - 0.0 - - - - - - -
04/06:00am 10.0 SSE 5 7 1033.2 - 0.0 - - - - - - -
04/05:30am 10.1 SSE 5 7 1033.1 - 0.0 - - - - - - -
04/05:00am 10.3 SSE 5 7 1033.1 - 0.0 - - - - - - -
04/04:30am 10.4 SSE 5 7 1033.0 - 0.0 - - - - - - -
04/04:00am 10.6 SE 5 8 1032.9 - 0.0 - - - - - - -
04/03:30am 10.7 SE 5 7 1032.8 - 0.0 - - - - - - -
04/03:00am 10.9 SE 6 7 1032.9 - 0.0 - - - - - - -
04/02:30am 11.1 SE 6 7 1032.8 - 0.0 - - - - - - -
04/02:00am 11.3 SE 6 8 1033.0 - 0.0 - - - - - - -
04/01:30am 10.9 SE 4 6 1033.0 - 0.0 - - - - - - -
04/01:00am 10.8 ESE 4 5 1032.9 - 0.0 - - - - - - -
04/12:30am 10.9 ESE 4 5 1033.2 - 0.0 - - - - - - -
04/12:00am 10.9 ESE 4 6 1033.3 - 0.0 - - - - - - -
 
Date/Time
WST
Temp

°C
Wind Pressure Rain
since 9am
mm
Weather Cloud Vis
km
Sea
Height
m
Swell
Dir
 
Speed
knots
Gust
knots
hPa Trend Height
m
Period
s
Dir
03/11:30pm 11.2 SE 4 5 1033.4 - 0.0 - - - - - - -
03/11:00pm 11.5 SE 3 4 1033.6 - 0.0 - - - - - - -
03/10:30pm 11.9 SE 3 4 1033.6 - 0.0 - - - - - - -
03/10:00pm 12.6 SE 4 5 1033.8 - 0.0 - - - - - - -
03/09:30pm 13.1 SSE 4 6 1034.0 - 0.0 - - - - - - -
03/09:00pm 13.1 SSE 3 4 1034.0 - 0.0 - - - - - - -
03/08:30pm 13.2 SE 3 5 1033.4 - 0.0 - - - - - - -
03/08:00pm 13.8 SE 4 5 1033.4 - 0.0 - - - - - - -
03/07:30pm 14.2 SE 4 5 1033.1 - 0.0 - - - - - - -
03/07:00pm 14.4 SSE 4 6 1033.1 - 0.0 - - - - - - -
03/06:30pm 14.7 SSE 4 5 1033.0 - 0.0 - - - - - - -
03/06:00pm 15.0 SSE 4 7 1032.6 - 0.0 - - - - - - -
03/05:30pm 15.2 S 6 8 1032.5 - 0.0 - - - - - - -
03/05:00pm 15.6 SSW 6 11 1032.3 - 0.0 - - - - - - -
03/04:30pm 16.1 SSW 7 9 1032.3 - 0.0 - - - - - - -
03/04:00pm 16.9 S 6 8 1032.5 - 0.0 - - - - - - -
03/03:30pm 16.8 S 6 8 1032.6 - 0.0 - - - - - - -
03/03:00pm 17.0 S 6 9 1032.7 - 0.0 - - - - - - -
03/02:30pm 17.1 SSE 6 8 1032.7 - 0.0 - - - - - - -
03/02:00pm 17.9 SSE 4 6 1032.8 - 0.0 - - - - - - -
03/01:30pm 18.7 NE 3 5 1033.1 - 0.0 - - - - - - -
03/01:00pm 17.8 SE 4 7 1033.6 - 0.0 - - - - - - -
03/12:30pm 18.0 NE 4 7 1033.8 - 0.0 - - - - - - -
03/12:00pm 18.2 E 4 8 1034.5 - 0.0 - - - - - - -
03/11:30am 17.4 ENE 4 6 1034.9 - 0.0 - - - - - - -
03/11:00am 16.4 ENE 4 8 1035.5 - 0.0 - - - - - - -
03/10:30am 15.4 E 7 11 1035.7 - 0.0 - - - - - - -
03/10:00am 13.8 ESE 6 8 1035.9 - 0.0 - - - - - - -
03/09:30am 12.4 ESE 4 7 1035.8 - 0.0 - - - - - - -
03/09:00am 10.8 ESE 3 5 1035.7 - 0.0 - - - - - - -
03/08:30am 9.6 SE 4 5 1035.7 - 0.0 - - - - - - -
03/08:00am 8.9 SE 4 5 1035.5 - 0.0 - - - - - - -
03/07:30am 8.5 SE 5 7 1035.1 - 0.0 - - - - - - -
03/07:00am 8.6 SE 6 8 1034.8 - 0.0 - - - - - - -
03/06:30am 8.9 SE 5 8 1034.4 - 0.0 - - - - - - -
03/06:00am 9.0 SE 6 7 1034.1 - 0.0 - - - - - - -
03/05:30am 9.1 SE 6 9 1034.3 - 0.0 - - - - - - -
03/05:00am 8.8 SE 5 7 1034.3 - 0.0 - - - - - - -
03/04:30am 8.4 SE 5 6 1034.1 - 0.0 - - - - - - -
03/04:00am 8.8 SE 5 6 1034.1 - 0.0 - - - - - - -
03/03:30am 9.3 SE 4 6 1034.4 - 0.0 - - - - - - -
03/03:00am 9.6 SE 2 5 1034.6 - 0.0 - - - - - - -
03/02:30am 9.8 SE 2 3 1034.7 - 0.0 - - - - - - -
03/02:00am 9.8 SE 2 2 1034.9 - 0.0 - - - - - - -
03/01:30am 9.9 SE 2 2 1034.6 - 0.0 - - - - - - -
03/01:00am 10.0 SE 1 1 1034.4 - 0.0 - - - - - - -
03/12:30am 10.3 SE 1 2 1034.1 - 0.0 - - - - - - -
03/12:00am 10.3 SE 2 3 1034.1 - 0.0 - - - - - - -
 
Date/Time
WST
Temp

°C
Wind Pressure Rain
since 9am
mm
Weather Cloud Vis
km
Sea
Height
m
Swell
Dir
 
Speed
knots
Gust
knots
hPa Trend Height
m
Period
s
Dir
02/11:30pm 10.4 SE 3 4 1034.3 - 0.0 - - - - - - -
02/11:00pm 10.6 ESE 3 4 1034.4 - 0.0 - - - - - - -
02/10:30pm 11.1 ESE 4 6 1034.2 - 0.0 - - - - - - -
02/10:00pm 11.5 ESE 6 8 1034.5 - 0.0 - - - - - - -
02/09:30pm 11.8 SE 5 8 1034.6 - 0.0 - - - - - - -
02/09:00pm 12.2 SE 7 10 1034.6 - 0.0 - - - - - - -
02/08:30pm 12.6 SE 7 10 1034.5 - 0.0 - - - - - - -
02/08:00pm 12.9 SE 7 10 1034.4 - 0.0 - - - - - - -
02/07:30pm 13.2 SE 7 10 1034.2 - 0.0 - - - - - - -
02/07:00pm 13.8 SE 6 8 1034.0 - 0.0 - - - - - - -
02/06:30pm 14.4 SE 6 8 1033.6 - 0.0 - - - - - - -
02/06:00pm 15.0 SE 5 8 1033.3 - 0.0 - - - - - - -
02/05:30pm 15.8 SE 5 8 1033.0 - 0.0 - - - - - - -
02/05:00pm 16.4 ESE 5 7 1032.6 - 0.0 - - - - - - -
02/04:30pm 16.6 SSE 5 8 1032.3 - 0.0 - - - - - - -
02/04:00pm 17.0 ESE 5 7 1032.1 - 0.0 - - - - - - -
02/03:30pm 17.0 SSE 5 8 1031.9 - 0.0 - - - - - - -
02/03:00pm 16.7 S 5 9 1032.0 - 0.0 - - - - - - -
02/02:30pm 16.7 SSE 5 9 1031.9 - 0.0 - - - - - - -
02/02:00pm 16.6 SE 5 9 1032.0 - 0.0 - - - - - - -
02/01:30pm 16.6 SSE 5 8 1032.2 - 0.0 - - - - - - -
02/01:00pm 15.8 SSE 5 8 1032.7 - 0.0 - - - - - - -
02/12:30pm 15.4 S 5 9 1033.3 - 0.0 - - - - - - -
02/12:00pm 16.3 E 6 10 1033.9 - 0.0 - - - - - - -
02/11:30am 14.6 E 6 12 1034.1 - 0.0 - - - - - - -
02/11:00am 14.3 ESE 9 14 1034.5 - 0.0 - - - - - - -
02/10:30am 14.1 ESE 7 10 1034.8 - 0.0 - - - - - - -
02/10:00am 12.9 ESE 6 10 1034.7 - 0.0 - - - - - - -
02/09:30am 11.4 ESE 5 7 1034.6 - 0.0 - - - - - - -
02/09:00am 9.9 ESE 5 8 1034.5 - 0.0 - - - - - - -
02/08:30am 8.7 ESE 4 5 1034.3 - 0.0 - - - - - - -
02/08:00am 8.1 SE 4 5 1034.1 - 0.0 - - - - - - -
02/07:30am 7.5 SE 4 5 1033.7 - 0.0 - - - - - - -
02/07:00am 7.8 SE 3 5 1033.3 - 0.0 - - - - - - -
02/06:30am 7.9 SE 4 5 1032.9 - 0.0 - - - - - - -
02/06:00am 8.2 SE 5 6 1032.5 - 0.0 - - - - - - -
02/05:30am 8.5 SE 4 6 1032.2 - 0.0 - - - - - - -
02/05:00am 8.9 SE 5 7 1031.9 - 0.0 - - - - - - -
02/04:30am 9.3 SE 6 8 1031.8 - 0.0 - - - - - - -
02/04:00am 9.9 SE 5 8 1031.8 - 0.0 - - - - - - -
02/03:30am 10.3 SSE 7 9 1031.7 - 0.0 - - - - - - -
02/03:00am 10.7 SSE 8 11 1031.6 - 0.0 - - - - - - -
02/02:30am 11.1 SE 8 10 1031.4 - 0.0 - - - - - - -
02/02:00am 11.4 SSE 8 11 1031.3 - 0.0 - - - - - - -
02/01:30am 11.6 SSE 9 12 1031.4 - 0.0 - - - - - - -
02/01:00am 11.8 SE 8 11 1031.4 - 0.0 - - - - - - -
02/12:30am 12.0 SSE 7 10 1031.1 - 0.0 - - - - - - -
02/12:00am 12.1 SSE 6 10 1031.0 - 0.0 - - - - - - -
 
Date/Time
WST
Temp

°C
Wind Pressure Rain
since 9am
mm
Weather Cloud Vis
km
Sea
Height
m
Swell
Dir
 
Speed
knots
Gust
knots
hPa Trend Height
m
Period
s
Dir
01/11:30pm 12.3 SSE 7 10 1030.9 - 0.0 - - - - - - -
01/11:00pm 12.7 SSE 6 9 1030.7 - 0.0 - - - - - - -
01/10:30pm 12.9 SSE 5 9 1030.8 - 0.0 - - - - - - -
01/10:00pm 13.1 SSE 5 7 1030.5 - 0.0 - - - - - - -
01/09:30pm 13.3 SSE 6 9 1030.3 - 0.0 - - - - - - -
01/09:00pm 13.5 SE 5 9 1030.1 - 0.0 - - - - - - -
01/08:30pm 13.6 SE 5 8 1029.9 - 0.0 - - - - - - -
01/08:00pm 13.5 SSE 7 10 1029.4 - 0.0 - - - - - - -
01/07:30pm 13.3 SE 4 6 1029.0 - 0.0 - - - - - - -
01/07:00pm 13.5 ESE 6 10 1028.5 - 0.0 - - - - - - -
01/06:30pm 14.3 SE 7 12 1028.1 - 0.0 - - - - - - -
01/06:00pm 14.8 SE 4 6 1027.5 - 0.0 - - - - - - -
01/05:30pm 15.3 SE 4 7 1027.0 - 0.0 - - - - - - -
01/05:00pm 15.6 SE 5 7 1026.8 - 0.0 - - - - - - -
01/04:30pm 16.0 ESE 7 10 1026.5 - 0.0 - - - - - - -
01/04:00pm 16.1 SE 8 11 1026.2 - 0.0 - - - - - - -
01/03:30pm 16.2 SE 10 14 1025.7 - 0.0 - - - - - - -
01/03:00pm 16.3 SE 11 15 1025.3 - 0.0 - - - - - - -
01/02:30pm 16.6 SSE 9 15 1025.1 - 0.0 - - - - - - -
01/02:00pm 16.7 SE 10 17 1025.0 - 0.0 - - - - - - -
01/01:30pm 16.2 SSE 10 17 1025.0 - 0.0 - - - - - - -
01/01:00pm 16.6 SE 11 17 1025.0 - 0.0 - - - - - - -
01/12:30pm 16.4 SE 12 18 1025.1 - 0.0 - - - - - - -
01/12:00pm 16.0 SSE 12 18 1025.2 - 0.0 - - - - - - -
01/11:30am 15.7 SE 15 21 1025.2 - 0.0 - - - - - - -
01/11:00am 15.2 SE 11 19 1025.3 - 0.0 - - - - - - -
01/10:30am 14.8 SE 10 16 1025.4 - 0.0 - - - - - - -
01/10:00am 14.0 SE 10 18 1025.0 - 0.0 - - - - - - -

Other Formats:

Comma delimited format used in spreadsheet applications
http://www.bom.gov.au/fwo/IDW60701/IDW60701.94605.axf

JavaScript Object Notation format (JSON) in row-major order
http://www.bom.gov.au/fwo/IDW60701/IDW60701.94605.json